Time;durP1;ratioP1;P1;durP2;ratioP2;P2;SDS_P1;SDS_P2;PMS_P1;PMS_P2;Temp;Humidity;BMP_temperature;BMP_pressure;BME280_temperature;BME280_humidity;BME280_pressure;Samples;Min_cycle;Max_cycle;Signal;HPM_P1;HPM_P2
2022/03/17 04:48:19;;;;;;;35.70;26.35;;;;;;;1.27;90.72;101637.94;6500074;26;20049;-89
2022/03/17 06:20:15;;;;;;;29.02;16.83;;;;;;;6.34;64.64;101782.06;6491433;27;20085;-87
2022/03/17 06:27:17;;;;;;;29.23;17.70;;;;;;;5.59;65.64;101789.41;6496659;27;34537;-89
2022/03/17 06:30:31;;;;;;;32.60;18.87;;;;;;;5.62;66.15;101795.38;6503766;27;34188;-88
2022/03/17 06:33:49;;;;;;;28.38;16.40;;;;;;;5.64;65.94;101796.09;6494052;27;36063;-88
2022/03/17 07:02:36;;;;;;;33.95;19.55;;;;;;;6.86;61.19;101825.41;6498635;27;20084;-87
2022/03/17 07:09:41;;;;;;;34.25;20.12;;;;;;;8.24;52.69;101826.94;6492544;27;20065;-87
2022/03/17 07:53:56;;;;;;;38.45;22.73;;;;;;;8.26;55.70;101831.19;6496832;27;35314;-86
2022/03/17 07:57:00;;;;;;;32.42;20.83;;;;;;;8.47;58.21;101822.34;6488470;27;34034;-85
2022/03/17 08:00:07;;;;;;;36.30;21.62;;;;;;;8.44;55.99;101819.94;6493716;27;35227;-86
2022/03/17 08:03:14;;;;;;;34.47;23.05;;;;;;;8.38;54.67;101824.81;6490692;27;34226;-89
2022/03/17 08:06:18;;;;;;;37.25;23.58;;;;;;;8.37;55.61;101827.63;6497345;27;34365;-85
2022/03/17 08:21:23;;;;;;;39.53;23.73;;;;;;;9.11;54.28;101838.38;6665961;26;237241;-87
2022/03/17 08:24:26;;;;;;;36.65;22.80;;;;;;;9.11;54.28;101838.38;6618279;26;33566;-87
2022/03/17 08:38:28;;;;;;;39.90;25.08;;;;;;;9.70;52.60;101853.78;5598515;31;182917;-86
2022/03/17 08:41:31;;;;;;;31.73;21.33;;;;;;;9.70;52.60;101853.78;5608312;31;33953;-86
2022/03/17 08:44:34;;;;;;;33.50;23.15;;;;;;;9.42;52.75;101850.00;5609557;31;33898;-86
2022/03/17 08:50:59;;;;;;;34.70;23.00;;;;;;;9.58;52.08;101852.19;5609577;26;35143;-86
2022/03/17 08:54:03;;;;;;;38.55;25.33;;;;;;;9.73;51.93;101852.66;5571152;32;34287;-87
2022/03/17 08:57:06;;;;;;;36.45;22.95;;;;;;;9.95;50.82;101855.16;5581023;32;34188;-86
2022/03/17 09:00:14;;;;;;;41.53;26.65;;;;;;;10.14;49.27;101857.00;5578417;31;33912;-86
2022/03/17 09:03:39;;;;;;;;;;;;;;;10.15;49.05;101855.16;5571223;32;35163;-86
2022/03/17 09:06:43;;;;;;;39.70;25.20;;;;;;;10.10;49.00;101855.59;5564843;32;34400;-86
2022/03/17 09:09:46;;;;;;;33.58;21.30;;;;;;;10.21;49.03;101850.09;5573976;32;34363;-86
2022/03/17 09:12:54;;;;;;;35.38;23.25;;;;;;;10.21;48.94;101858.19;5578113;32;34425;-86
2022/03/17 09:15:57;;;;;;;36.05;23.77;;;;;;;10.41;48.42;101863.59;5576095;31;34436;-86
2022/03/17 09:19:00;;;;;;;36.55;23.25;;;;;;;10.56;47.85;101856.84;5579872;32;33846;-88
2022/03/17 09:22:04;;;;;;;39.67;23.30;;;;;;;10.74;47.05;101854.28;5566059;32;33790;-88
2022/03/17 09:25:08;;;;;;;34.20;23.48;;;;;;;10.81;47.85;101854.53;5567374;32;33542;-87
2022/03/17 09:28:11;;;;;;;42.92;24.63;;;;;;;11.35;46.81;101861.13;5577642;32;34843;-87
2022/03/17 09:31:16;;;;;;;37.15;26.42;;;;;;;11.21;46.68;101866.97;5572990;32;33974;-86
2022/03/17 09:34:19;;;;;;;38.45;25.58;;;;;;;11.34;45.33;101870.19;5564744;32;34081;-87
2022/03/17 09:37:22;;;;;;;38.60;25.08;;;;;;;11.39;44.88;101862.53;5562698;32;33768;-86
2022/03/17 09:40:24;;;;;;;46.70;26.23;;;;;;;11.50;45.25;101862.34;5561273;32;34016;-86
2022/03/17 14:01:17;;;;;;;30.08;21.75;;;;;;;13.38;37.93;101850.75;2432849;27;20086;-86
2022/03/17 14:04:28;;;;;;;31.20;22.13;;;;;;;13.22;38.42;101847.94;5430475;32;33477;-85
2022/03/17 14:07:31;;;;;;;31.50;21.40;;;;;;;12.99;38.99;101844.88;5435144;32;34330;-86
2022/03/17 14:10:35;;;;;;;31.48;21.75;;;;;;;12.88;39.10;101845.97;5506398;27;33589;-87
2022/03/17 14:13:43;;;;;;;34.25;21.55;;;;;;;12.96;39.36;101849.72;5432138;32;33850;-86
2022/03/17 14:16:47;;;;;;;31.10;20.73;;;;;;;12.97;39.26;101854.16;5431563;32;34201;-85
2022/03/17 14:19:50;;;;;;;32.45;21.25;;;;;;;12.59;39.46;101854.34;5433169;32;33595;-87
2022/03/17 14:26:16;;;;;;;37.95;19.98;;;;;;;12.30;40.35;101851.03;5436781;32;34801;-92
2022/03/17 14:33:50;;;;;;;30.55;21.15;;;;;;;12.29;41.07;101852.03;1884390;27;20084;-88
2022/03/17 14:37:06;;;;;;;29.37;21.30;;;;;;;12.30;42.01;101848.31;5478623;27;33227;-88
2022/03/17 14:40:10;;;;;;;30.23;21.80;;;;;;;12.11;42.33;101844.75;5417807;32;33704;-86
2022/03/17 14:43:14;;;;;;;32.42;21.62;;;;;;;12.37;41.54;101841.28;5482962;27;34128;-87
2022/03/17 14:46:19;;;;;;;30.37;21.23;;;;;;;12.34;41.59;101842.44;5474445;27;34762;-87
2022/03/17 14:49:23;;;;;;;33.88;22.10;;;;;;;11.96;42.70;101846.25;5501545;27;35218;-87
2022/03/17 14:52:26;;;;;;;31.40;21.87;;;;;;;11.92;43.30;101843.00;5472926;32;35196;-88
2022/03/17 14:55:29;;;;;;;30.20;20.70;;;;;;;11.69;44.59;101849.78;5472667;32;35090;-87
2022/03/17 14:58:32;;;;;;;27.02;19.92;;;;;;;11.73;44.99;101849.34;5462576;32;35186;-87
2022/03/17 15:01:36;;;;;;;28.62;20.23;;;;;;;11.88;44.92;101854.28;5421882;32;35268;-87
2022/03/17 15:04:40;;;;;;;28.23;20.37;;;;;;;11.83;45.50;101860.06;5495562;27;34301;-87
2022/03/17 15:07:46;;;;;;;29.92;20.42;;;;;;;11.81;45.46;101857.50;5452148;27;35241;-86
2022/03/17 15:10:51;;;;;;;27.80;21.08;;;;;;;11.71;45.99;101859.41;5462093;27;34088;-88
2022/03/17 15:18:23;;;;;;;26.15;18.00;;;;;;;11.96;45.76;101857.91;5465782;27;33598;-86
2022/03/17 15:25:28;;;;;;;25.37;18.75;;;;;;;11.59;48.48;101866.00;5468473;27;20102;-87
2022/03/17 15:37:12;;;;;;;32.88;21.87;;;;;;;11.07;54.74;101885.28;896584;27;20415;-86
2022/03/17 15:40:17;;;;;;;32.13;21.35;;;;;;;10.61;57.29;101897.63;5392854;33;32423;-87
2022/03/17 15:43:22;;;;;;;30.52;22.37;;;;;;;10.49;58.34;101888.00;5392411;32;33983;-87
2022/03/17 15:46:25;;;;;;;32.58;21.83;;;;;;;10.39;58.55;101903.28;5392376;32;33483;-87
2022/03/17 15:49:28;;;;;;;31.60;21.20;;;;;;;10.19;59.72;101899.69;5390735;33;34076;-87
2022/03/17 15:52:32;;;;;;;30.50;21.10;;;;;;;10.06;60.32;101901.75;5389227;33;34533;-88
2022/03/17 15:55:35;;;;;;;30.50;21.98;;;;;;;9.97;60.83;101914.19;5394899;32;34044;-88
2022/03/17 15:58:38;;;;;;;29.12;21.02;;;;;;;9.83;61.11;101917.25;5407518;32;34798;-87
2022/03/17 16:01:41;;;;;;;31.10;21.67;;;;;;;9.79;61.18;101923.88;5416273;32;33608;-87
2022/03/17 16:04:45;;;;;;;28.98;19.87;;;;;;;9.69;61.83;101924.69;5425823;32;33778;-87
2022/03/17 16:07:48;;;;;;;30.08;20.05;;;;;;;9.52;62.52;101919.94;5421678;32;34171;-87
2022/03/17 16:14:28;;;;;;;32.45;20.75;;;;;;;9.34;63.47;101938.50;5408463;32;33898;-87
2022/03/17 16:17:31;;;;;;;30.25;20.20;;;;;;;9.29;63.75;101944.25;5429462;27;34244;-87
2022/03/17 16:20:36;;;;;;;31.35;20.88;;;;;;;9.14;64.09;101945.56;5472546;27;32187;-86
2022/03/17 16:23:41;;;;;;;30.45;20.83;;;;;;;9.17;63.98;101948.00;5407766;33;33954;-89
2022/03/17 16:26:44;;;;;;;34.47;22.65;;;;;;;9.05;64.16;101954.41;5399641;33;34779;-88
2022/03/17 16:37:43;;;;;;;27.58;17.62;;;;;;;8.85;65.19;101959.59;4901994;27;20113;-88
2022/03/17 16:40:47;;;;;;;33.70;19.92;;;;;;;8.66;66.08;101962.13;5452838;27;35195;-88
2022/03/17 16:44:10;;;;;;;36.50;20.62;;;;;;;8.59;66.65;101960.91;2318987;27;20087;-87
2022/03/17 16:50:59;;;;;;;39.03;22.25;;;;;;;8.45;67.46;101966.56;5469490;27;33682;-88
